HOURLY OBS INDEX

017

Northeast Pastoral

LEIGH CREEK AIRPORT

Site: 017110
Alt: 258.8m
111km SSE of MARREE


  Time     Wind        Temp  DP   Baro     Rain since   Rain past  Vis(m), Cloud(base in m), Weather
  local        km/h                         9am  last   hr   10m    
Tue 06:30    S 11/ 15  13.5  6.8  1020.5    0.2   0.0   0.0   0.0   ----- 
Tue 07:00    S 11/ 15  13.0  6.8  1021.0    0.2   0.0   0.0   0.0   ----- 
Tue 07:30    S  9/ 15  12.7  6.5  1021.4    0.2   0.0   0.0   0.0   ----- 
Tue 08:00    S  9/ 15  13.2  6.5  1021.7    0.2   0.0   0.0   0.0   ----- 
Tue 08:30  SSE 11/ 15  14.5  6.1  1022.0    0.2   0.0   0.0   0.0   ----- 
Tue 09:00   SE 11/ 17  15.7  5.9  1022.2    0.2   0.0   0.0   0.0   ----- 
Tue 09:30   SE 17/ 24  16.3  4.7  1022.1    0.0   0.0   0.0   0.0   ----- 
Tue 10:00   SE 15/ 24  17.2  5.2  1022.3    0.0   0.0   0.0   0.0   ----- 
Tue 10:30  SSE 15/ 22  17.8  4.7  1022.4    0.0   0.0   0.0   0.0   ----- 
Tue 11:00  ESE 15/ 20  18.5  4.7  1022.3    0.0   0.0   0.0   0.0   ----- 
Tue 11:30  ESE 13/ 20  19.6  5.6  1022.2    0.0   0.0   0.0   0.0   ----- 
Tue 12:00  ESE 15/ 24  20.3  4.8  1022.0    0.0   0.0   0.0   0.0   ----- 

MARREE AERO

Site: 017126
Alt: 50.0m
1km SSE of MARREE


  Time     Wind        Temp  DP   Baro     Rain since   Rain past  Vis(m), Cloud(base in m), Weather
  local        km/h                         9am  last   hr   10m    
Tue 06:30    S 20/ 24  15.3  7.6  1020.1    0.0   0.0   0.0   0.0   ----- 
Tue 07:00    S 20/ 26  15.1  7.6  1020.5    0.0   0.0   0.0   0.0   ----- 
Tue 07:30  SSE 22/ 26  14.8  7.6  1020.8    0.0   0.0   0.0   0.0   ----- 
Tue 08:00    S 19/ 24  15.2  7.7  1021.1    0.0   0.0   0.0   0.0   ----- 
Tue 08:30  SSE 22/ 28  16.3  7.8  1021.4    0.0   0.0   0.0   0.0   ----- 
Tue 09:00  SSE 28/ 35  17.9  7.3  1021.5    0.0   0.0   0.0   0.0   ----- 
Tue 09:30  SSE 32/ 39  18.9  6.7  1021.5    0.0   0.0   0.0   0.0   ----- 
Tue 10:00  SSE 30/ 35  19.7  6.4  1021.8    0.0   0.0   0.0   0.0   ----- 
Tue 10:30  SSE 26/ 39  20.6  5.8  1022.0    0.0   0.0   0.0   0.0   ----- 
Tue 11:00   SE 24/ 32  21.2  5.6  1021.9    0.0   0.0   0.0   0.0   ----- 
Tue 11:30  SSE 24/ 33  22.8  4.8  1021.7    0.0   0.0   0.0   0.0   ----- 
Tue 12:00  SSE 22/ 32  22.9  4.9  1021.5    0.0   0.0   0.0   0.0   ----- 

MOOMBA AIRPORT

Site: 017123
Alt: 37.8m
66km SW of INNAMINCKA


  Time     Wind        Temp  DP   Baro     Rain since   Rain past  Vis(m), Cloud(base in m), Weather
  local        km/h                         9am  last   hr   10m    
Tue 06:30  SSE 28/ 35  18.5 10.1  1016.6    0.0   0.0   0.0   0.0   10000|BR1050 
Tue 07:00  SSE 28/ 35  18.3  9.9  1017.0    0.0   0.0   0.0   0.0   10000|SC1050 
Tue 07:30  SSE 28/ 37  18.2  9.8  1017.4    0.0   0.0   0.0   0.0   10000|OC1110 
Tue 08:00  SSE 30/ 37  18.1  9.7  1017.7    0.0   0.0   0.0   0.0   10000|OC1230 
Tue 08:30  SSE 28/ 41  18.2  9.5  1018.2    0.0   0.0   0.0   0.0   10000|BR1230 OC1710 
Tue 09:00  SSE 30/ 41  19.0  9.2  1018.5    0.0   0.0   0.0   0.0   10000|BR1290 OC1830 
Tue 09:25  SSE 28/ 46  19.7  9.0  1018.5    0.0   0.0  ----   0.0   10000|SC1230 BR1890 
Tue 09:30  SSE 30/ 46  20.1  9.1  1018.5    0.0   0.0   0.0   0.0   10000|BR1950 
Tue 10:00   SE 30/ 39  21.2  8.8  1018.9    0.0   0.0   0.0   0.0   10000|BR1890 BR2130 
Tue 10:30   SE 33/ 45  21.6  8.5  1018.9    0.0   0.0   0.0   0.0   10000|SC1830 
Tue 10:43   SE 32/ 50  21.8  8.0  1018.9    0.0   0.0  ----   0.0   10000|SC1890 
Tue 11:00   SE 32/ 43  22.6  8.0  1018.8    0.0   0.0   0.0   0.0   10000|SC1890 
Tue 11:30   SE 30/ 45  23.8  7.8  1018.8    0.0   0.0   0.0   0.0   10000 
Tue 12:00   SE 30/ 43  24.0  7.6  1018.7    0.0   0.0   0.0   0.0   10000 

OODNADATTA AIRPORT

Site: 017043
Alt: 116.5m
1km S of OODNADATTA


  Time     Wind        Temp  DP   Baro     Rain since   Rain past  Vis(m), Cloud(base in m), Weather
  local        km/h                         9am  last   hr   10m    
Tue 06:30    S 20/ 28  16.1  6.5  1019.5    0.0   0.0   0.0   0.0   ----- 
Tue 07:00    S 19/ 24  15.7  6.7  1019.8    0.0   0.0   0.0   0.0   ----- 
Tue 07:30    S 19/ 24  15.3  6.8  1020.3    0.0   0.0   0.0   0.0   ----- 
Tue 08:00    S 19/ 22  15.3  6.8  1020.6    0.0   0.0   0.0   0.0   ----- 
Tue 08:30    S 20/ 26  16.1  7.1  1020.7    0.0   0.0   0.0   0.0   ----- 
Tue 09:00    S 28/ 35  17.1  7.2  1020.9    0.0   0.0   0.0   0.0   ----- 
Tue 09:30  SSE 28/ 35  18.4  7.2  1021.1    0.0   0.0   0.0   0.0   ----- 
Tue 10:00  SSE 32/ 39  19.6  7.0  1021.2    0.0   0.0   0.0   0.0   ----- 
Tue 10:30   SE 33/ 43  21.5  7.0  1021.2    0.0   0.0   0.0   0.0   ----- 
Tue 11:00   SE 32/ 41  22.5  7.1  1021.1    0.0   0.0   0.0   0.0   ----- 
Tue 11:30   SE 28/ 37  23.3  7.0  1020.9    0.0   0.0   0.0   0.0   ----- 
Tue 12:00  SSE 28/ 37  23.8  6.6  1020.8    0.0   0.0   0.0   0.0   -----